createdAt,value
2018-12-05T00:02:25.371Z,98.75
2018-12-05T00:04:55.211Z,99.10
2018-12-05T00:07:25.302Z,99.04
2018-12-05T00:09:54.990Z,99.24
2018-12-05T00:12:24.817Z,99.62
2018-12-05T00:14:54.605Z,99.36
2018-12-05T00:17:24.401Z,99.80
2018-12-05T00:19:54.090Z,99.36
2018-12-05T00:22:23.847Z,99.60
2018-12-05T00:24:53.617Z,99.39
2018-12-05T00:27:23.530Z,99.63
2018-12-05T00:29:53.217Z,98.97
2018-12-05T00:32:23.108Z,99.41
2018-12-05T00:34:53.186Z,98.85
2018-12-05T00:37:23.082Z,99.24
2018-12-05T00:39:52.871Z,99.10
2018-12-05T00:42:22.663Z,99.17
2018-12-05T00:44:53.490Z,99.32
2018-12-05T00:47:23.210Z,99.60
2018-12-05T00:49:52.890Z,99.40
2018-12-05T00:52:22.590Z,99.19
2018-12-05T00:54:52.378Z,98.79
2018-12-05T00:57:22.227Z,98.88
2018-12-05T00:59:51.927Z,99.50
2018-12-05T01:02:21.793Z,99.24
2018-12-05T01:04:51.474Z,99.32
2018-12-05T01:07:21.267Z,99.04
2018-12-05T01:09:51.071Z,99.14
2018-12-05T01:12:20.790Z,99.20
2018-12-05T01:14:50.499Z,99.09
2018-12-05T01:17:21.098Z,98.67
2018-12-05T01:19:50.910Z,99.02
2018-12-05T01:22:21.596Z,98.02
2018-12-05T01:24:51.484Z,96.97
2018-12-05T01:27:21.938Z,96.78
2018-12-05T01:29:51.817Z,96.83
2018-12-05T01:32:21.671Z,96.49
2018-12-05T01:34:51.503Z,96.05
2018-12-05T01:37:21.825Z,96.80
2018-12-05T01:39:51.730Z,96.79
2018-12-05T01:42:21.633Z,96.28
2018-12-05T01:44:56.084Z,97.15
2018-12-05T01:47:25.986Z,97.35
2018-12-05T01:49:55.863Z,97.46
2018-12-05T01:52:25.610Z,97.62
2018-12-05T01:54:55.362Z,97.99
2018-12-05T01:57:25.146Z,97.87
2018-12-05T01:59:54.946Z,97.43
2018-12-05T02:02:24.710Z,97.36
2018-12-05T02:04:54.458Z,97.58
2018-12-05T02:07:24.174Z,98.08
2018-12-05T02:09:54.206Z,98.22
2018-12-05T02:12:24.007Z,97.89
2018-12-05T02:14:53.814Z,98.04
2018-12-05T02:17:23.727Z,98.22
2018-12-05T02:19:53.451Z,98.99
2018-12-05T02:22:23.167Z,98.73
2018-12-05T02:24:53.514Z,99.50
2018-12-05T02:27:23.346Z,99.36
2018-12-05T02:29:58.225Z,99.86
2018-12-05T02:32:28.000Z,99.39
2018-12-05T02:34:57.962Z,99.99
2018-12-05T02:37:27.705Z,99.96
2018-12-05T02:39:57.568Z,99.55
2018-12-05T02:42:27.288Z,100.00
2018-12-05T02:44:57.523Z,99.73
2018-12-05T02:47:27.498Z,99.72
2018-12-05T02:49:57.337Z,98.90
2018-12-05T02:52:27.358Z,99.38
2018-12-05T02:54:57.158Z,99.27
2018-12-05T02:57:26.866Z,99.56
2018-12-05T02:59:56.791Z,99.67
2018-12-05T03:02:26.542Z,99.21
2018-12-05T03:04:56.396Z,99.91
2018-12-05T03:07:26.118Z,99.69
2018-12-05T03:09:56.047Z,99.98
2018-12-05T03:12:25.915Z,99.56
2018-12-05T03:14:55.617Z,99.77
2018-12-05T03:17:25.669Z,99.89
2018-12-05T03:19:55.539Z,100.00
2018-12-05T03:22:25.256Z,100.00
2018-12-05T03:24:55.027Z,100.00
2018-12-05T03:27:24.833Z,99.93
2018-12-05T03:29:54.743Z,100.00
2018-12-05T03:32:26.409Z,99.83
2018-12-05T03:34:56.398Z,99.83
2018-12-05T03:37:26.234Z,99.76
2018-12-05T03:39:56.060Z,99.43
2018-12-05T03:42:25.876Z,100.00
2018-12-05T03:44:55.691Z,99.34
2018-12-05T03:47:25.419Z,100.00
2018-12-05T03:50:00.601Z,99.63
2018-12-05T03:52:31.259Z,99.78
2018-12-05T03:55:03.074Z,98.86
2018-12-05T03:57:33.094Z,99.42
2018-12-05T04:00:03.026Z,99.57
2018-12-05T04:02:33.292Z,99.01
2018-12-05T04:05:03.250Z,97.62
2018-12-05T04:07:33.220Z,98.51
2018-12-05T04:10:03.820Z,97.39
2018-12-05T04:12:40.441Z,96.67
2018-12-05T04:15:06.173Z,98.57
2018-12-05T04:17:35.854Z,97.99
2018-12-05T04:20:05.678Z,98.12
2018-12-05T04:22:35.523Z,98.65
2018-12-05T04:25:05.468Z,99.03
2018-12-05T04:27:35.466Z,99.60
2018-12-05T04:30:05.728Z,99.50
2018-12-05T04:32:37.539Z,99.37
2018-12-05T04:35:07.443Z,99.55
2018-12-05T04:37:37.213Z,100.00
2018-12-05T04:40:07.264Z,100.00
2018-12-05T04:42:37.006Z,99.96
2018-12-05T04:45:06.819Z,99.52
2018-12-05T04:47:36.651Z,99.62
2018-12-05T04:50:06.808Z,99.73
2018-12-05T04:52:36.713Z,100.00
2018-12-05T04:55:06.621Z,100.00
2018-12-05T04:57:36.607Z,100.00
2018-12-05T05:00:07.589Z,100.00
2018-12-05T05:02:37.402Z,100.00
2018-12-05T05:05:07.198Z,100.00
2018-12-05T05:07:37.127Z,100.00
2018-12-05T05:10:07.030Z,100.00
2018-12-05T05:12:36.814Z,99.54
2018-12-05T05:15:06.710Z,98.91
2018-12-05T05:17:36.475Z,98.37
2018-12-05T05:20:06.457Z,97.99
2018-12-05T05:22:36.311Z,98.86
2018-12-05T05:25:06.014Z,98.42
2018-12-05T05:27:35.771Z,98.70
2018-12-05T05:30:06.045Z,98.57
2018-12-05T05:32:35.980Z,99.29
2018-12-05T05:35:05.815Z,99.47
2018-12-05T05:37:35.730Z,99.65
2018-12-05T05:40:05.740Z,99.59
2018-12-05T05:42:35.602Z,100.00
2018-12-05T05:45:05.475Z,100.00
2018-12-05T05:47:35.234Z,99.88
2018-12-05T05:50:05.264Z,100.00
2018-12-05T05:52:34.958Z,100.00
2018-12-05T05:55:05.210Z,100.00
2018-12-05T05:57:34.978Z,100.00
2018-12-05T06:00:06.119Z,100.00
2018-12-05T06:02:37.034Z,100.00
2018-12-05T06:05:07.031Z,100.00
2018-12-05T06:07:36.805Z,100.00
2018-12-05T06:10:07.479Z,100.00
2018-12-05T06:12:37.339Z,100.00
2018-12-05T06:15:08.655Z,100.00
2018-12-05T06:17:38.639Z,100.00
2018-12-05T06:20:08.381Z,100.00
2018-12-05T06:22:38.099Z,100.00
2018-12-05T06:25:08.071Z,100.00
2018-12-05T06:27:38.174Z,100.00
2018-12-05T06:30:08.206Z,100.00
2018-12-05T06:32:37.914Z,100.00
2018-12-05T06:35:07.878Z,100.00
2018-12-05T06:37:37.958Z,100.00
2018-12-05T06:40:07.974Z,100.00
2018-12-05T06:42:37.833Z,100.00
2018-12-05T06:45:07.762Z,99.68
2018-12-05T06:47:37.558Z,99.16
2018-12-05T06:50:08.175Z,98.87
2018-12-05T06:52:37.974Z,98.34
2018-12-05T06:55:07.817Z,98.95
2018-12-05T06:57:37.572Z,98.86
2018-12-05T07:00:08.328Z,97.82
2018-12-05T07:02:39.025Z,98.00
2018-12-05T07:05:08.819Z,98.49
2018-12-05T07:07:38.556Z,98.09
2018-12-05T07:10:08.542Z,98.70
2018-12-05T07:12:38.294Z,98.85
2018-12-05T07:15:08.392Z,98.09
2018-12-05T07:17:38.165Z,98.98
2018-12-05T07:20:09.120Z,99.04
2018-12-05T07:22:38.826Z,98.90
2018-12-05T07:25:08.760Z,98.94
2018-12-05T07:27:38.514Z,98.36
2018-12-05T07:30:08.439Z,97.95
2018-12-05T07:32:38.194Z,98.16
2018-12-05T07:35:09.030Z,98.30
2018-12-05T07:37:38.816Z,97.84
2018-12-05T07:40:08.550Z,97.09
2018-12-05T07:42:38.342Z,98.15
2018-12-05T07:45:08.199Z,97.67
2018-12-05T07:47:38.022Z,97.96
2018-12-05T07:50:07.948Z,97.18
2018-12-05T07:52:37.854Z,97.34
2018-12-05T07:55:07.846Z,97.14
2018-12-05T07:57:37.925Z,97.26
2018-12-05T08:00:08.049Z,98.25
2018-12-05T08:02:37.826Z,99.17
2018-12-05T08:05:07.675Z,99.41
2018-12-05T08:07:37.488Z,99.48
2018-12-05T08:10:07.287Z,99.16
2018-12-05T08:12:37.041Z,99.51
2018-12-05T08:15:08.158Z,97.79
2018-12-05T08:17:37.902Z,97.07
2018-12-05T08:20:07.864Z,95.89
2018-12-05T08:22:37.702Z,96.58
2018-12-05T08:25:07.482Z,96.65
2018-12-05T08:27:37.295Z,96.25
2018-12-05T08:30:08.020Z,96.16
2018-12-05T08:32:37.721Z,95.46
2018-12-05T08:35:07.606Z,96.06
2018-12-05T08:37:37.440Z,95.11
2018-12-05T08:40:07.178Z,96.59
2018-12-05T08:42:36.960Z,95.60
2018-12-05T08:45:06.943Z,96.17
2018-12-05T08:47:36.683Z,96.20
2018-12-05T08:50:06.626Z,96.25
2018-12-05T08:52:36.452Z,96.48
2018-12-05T08:55:06.427Z,96.23
2018-12-05T08:57:36.177Z,95.92
2018-12-05T09:00:07.394Z,95.67
2018-12-05T09:02:37.522Z,95.86
2018-12-05T09:05:07.851Z,95.52
2018-12-05T09:07:37.672Z,95.52
2018-12-05T09:10:07.561Z,95.84
2018-12-05T09:12:37.360Z,95.86
2018-12-05T09:15:07.577Z,95.39
2018-12-05T09:17:37.407Z,96.47
2018-12-05T09:20:08.143Z,95.45
2018-12-05T09:22:41.168Z,95.44
2018-12-05T09:25:09.802Z,95.19
2018-12-05T09:27:39.756Z,95.46
2018-12-05T09:30:09.819Z,95.30
2018-12-05T09:32:39.623Z,95.19
2018-12-05T09:35:09.982Z,94.82
2018-12-05T09:37:40.002Z,94.75
2018-12-05T09:40:09.910Z,93.90
2018-12-05T09:42:39.764Z,95.22
2018-12-05T09:45:12.630Z,95.21
2018-12-05T09:47:42.535Z,95.08
2018-12-05T09:50:12.238Z,95.54
2018-12-05T09:52:42.187Z,95.44
2018-12-05T09:55:12.144Z,94.92
2018-12-05T09:57:42.102Z,95.97
2018-12-05T10:00:11.903Z,96.02
2018-12-05T10:02:42.075Z,95.44
2018-12-05T10:05:11.958Z,95.25
2018-12-05T10:07:42.598Z,95.20
2018-12-05T10:10:12.410Z,95.47
2018-12-05T10:12:42.159Z,95.10
2018-12-05T10:15:12.054Z,95.45
2018-12-05T10:17:42.815Z,95.62
2018-12-05T10:20:12.618Z,95.71
2018-12-05T10:22:42.475Z,95.12
2018-12-05T10:25:12.193Z,94.63
2018-12-05T10:27:43.329Z,94.77
2018-12-05T10:30:13.406Z,94.49
2018-12-05T10:32:43.213Z,95.38
2018-12-05T10:35:13.986Z,94.39
2018-12-05T10:37:44.278Z,95.16
2018-12-05T10:40:15.089Z,93.15
2018-12-05T10:42:45.127Z,92.51
2018-12-05T10:45:14.949Z,93.32
2018-12-05T10:47:45.043Z,93.49
2018-12-05T10:50:14.839Z,94.01
2018-12-05T10:52:44.652Z,92.72
2018-12-05T10:55:14.538Z,93.18
2018-12-05T10:57:44.483Z,94.43
2018-12-05T11:00:22.523Z,95.68
2018-12-05T11:02:57.775Z,94.18
2018-12-05T11:05:32.998Z,94.88
2018-12-05T11:08:08.338Z,94.92
2018-12-05T11:10:44.718Z,95.18
2018-12-05T11:13:19.974Z,93.72
2018-12-05T11:15:55.242Z,94.54
2018-12-05T11:18:30.284Z,94.26
2018-12-05T11:21:05.363Z,94.07
2018-12-05T11:23:41.645Z,93.11
2018-12-05T11:26:15.323Z,92.50
2018-12-05T11:28:45.166Z,92.26
2018-12-05T11:31:15.038Z,91.48
2018-12-05T11:33:45.249Z,92.81
2018-12-05T11:36:15.252Z,93.17
2018-12-05T11:38:45.014Z,93.23
2018-12-05T11:41:14.906Z,92.00
2018-12-05T11:43:44.725Z,92.03
2018-12-05T11:46:14.498Z,93.27
2018-12-05T11:48:44.205Z,91.86
2018-12-05T11:51:14.043Z,91.77
2018-12-05T11:53:43.799Z,91.55
2018-12-05T11:56:13.664Z,91.54
2018-12-05T11:58:43.582Z,90.64
2018-12-05T12:01:13.392Z,90.36
2018-12-05T12:03:43.310Z,91.21
2018-12-05T12:06:15.220Z,91.02
2018-12-05T12:08:45.198Z,89.35
2018-12-05T12:11:15.006Z,90.01
2018-12-05T12:13:44.978Z,89.95
2018-12-05T12:16:14.826Z,90.43
2018-12-05T12:18:45.570Z,91.25
2018-12-05T12:21:15.306Z,91.01
2018-12-05T12:23:45.175Z,91.07
2018-12-05T12:26:14.895Z,89.20
2018-12-05T12:28:44.736Z,89.17
2018-12-05T12:31:14.438Z,90.24
2018-12-05T12:33:44.160Z,89.44
2018-12-05T12:36:13.950Z,88.40
2018-12-05T12:38:43.659Z,89.86
2018-12-05T12:41:13.467Z,90.28
2018-12-05T12:43:44.275Z,87.46
2018-12-05T12:46:14.022Z,91.00
2018-12-05T12:48:43.974Z,87.67
2018-12-05T12:51:13.783Z,85.67
2018-12-05T12:53:44.536Z,87.12
2018-12-05T12:56:14.771Z,87.35
2018-12-05T12:58:44.588Z,87.32
2018-12-05T13:01:14.394Z,87.80
2018-12-05T13:03:44.351Z,86.97
2018-12-05T13:06:14.047Z,86.82
2018-12-05T13:08:44.047Z,88.10
2018-12-05T13:11:13.871Z,89.03
2018-12-05T13:13:43.575Z,90.31
2018-12-05T13:16:13.278Z,90.14
2018-12-05T13:18:43.043Z,90.69
2018-12-05T13:21:12.847Z,91.21
2018-12-05T13:23:42.658Z,91.05
2018-12-05T13:26:12.458Z,89.79
2018-12-05T13:28:42.372Z,90.86
2018-12-05T13:31:12.114Z,90.26
2018-12-05T13:33:41.883Z,90.30
2018-12-05T13:36:11.946Z,90.01
2018-12-05T13:38:41.658Z,90.42
2018-12-05T13:41:11.502Z,91.29
2018-12-05T13:43:41.259Z,91.86
2018-12-05T13:46:10.951Z,90.95
2018-12-05T13:48:40.785Z,90.20
2018-12-05T13:51:10.799Z,91.75
2018-12-05T13:53:41.807Z,91.28
2018-12-05T13:56:11.556Z,91.74
2018-12-05T13:58:41.421Z,90.68
2018-12-05T14:01:11.289Z,91.46
2018-12-05T14:03:41.208Z,92.72
2018-12-05T14:06:11.010Z,92.11
2018-12-05T14:08:41.454Z,91.33
2018-12-05T14:11:11.154Z,93.14
2018-12-05T14:13:40.882Z,92.90
2018-12-05T14:16:10.754Z,93.81
2018-12-05T14:18:40.655Z,94.14
2018-12-05T14:21:10.347Z,93.96
2018-12-05T14:23:40.050Z,94.49
2018-12-05T14:26:09.819Z,95.51
2018-12-05T14:28:39.771Z,95.42
2018-12-05T14:31:09.526Z,95.59
2018-12-05T14:33:39.478Z,95.54
2018-12-05T14:36:09.175Z,95.56
2018-12-05T14:38:38.999Z,95.80
2018-12-05T14:41:08.802Z,96.38
2018-12-05T14:43:38.505Z,95.96
2018-12-05T14:46:08.419Z,95.93
2018-12-05T14:48:38.140Z,96.33
2018-12-05T14:51:07.854Z,96.88
2018-12-05T14:53:37.555Z,97.19
2018-12-05T14:56:07.275Z,96.86
2018-12-05T14:58:37.138Z,97.39
2018-12-05T15:01:07.115Z,97.79
2018-12-05T15:03:36.846Z,97.41
2018-12-05T15:06:06.646Z,97.47
2018-12-05T15:08:36.467Z,97.51
2018-12-05T15:11:06.402Z,97.45
2018-12-05T15:13:36.094Z,97.94
2018-12-05T15:16:06.095Z,97.94
2018-12-05T15:18:35.902Z,98.21
2018-12-05T15:21:05.655Z,98.56
2018-12-05T15:23:35.427Z,98.62
2018-12-05T15:26:05.142Z,99.00
2018-12-05T15:28:34.942Z,98.90
2018-12-05T15:31:04.854Z,98.61
2018-12-05T15:33:34.691Z,99.21
2018-12-05T15:36:04.455Z,99.20
2018-12-05T15:38:34.302Z,99.40
2018-12-05T15:41:04.258Z,99.04
2018-12-05T15:43:34.023Z,99.72
2018-12-05T15:46:03.961Z,99.35
2018-12-05T15:48:33.762Z,99.74
2018-12-05T15:51:04.718Z,99.66
2018-12-05T15:53:34.415Z,99.85
2018-12-05T15:56:04.355Z,99.69
2018-12-05T15:58:34.050Z,99.87
2018-12-05T16:01:03.917Z,99.43
2018-12-05T16:03:34.757Z,99.81
2018-12-05T16:06:04.709Z,99.87
2018-12-05T16:08:34.747Z,100.00
2018-12-05T16:11:04.998Z,99.85
2018-12-05T16:13:34.707Z,100.00
2018-12-05T16:16:04.495Z,100.00
2018-12-05T16:18:34.323Z,100.00
2018-12-05T16:21:04.154Z,100.00
2018-12-05T16:23:34.149Z,100.00
2018-12-05T16:26:10.552Z,99.83
2018-12-05T16:28:35.847Z,100.00
2018-12-05T16:31:05.566Z,99.85
2018-12-05T16:33:35.352Z,100.00
2018-12-05T16:36:05.295Z,100.00
2018-12-05T16:38:35.035Z,100.00
2018-12-05T16:41:04.969Z,100.00
2018-12-05T16:43:34.735Z,99.68
2018-12-05T16:46:04.616Z,100.00
2018-12-05T16:48:34.326Z,99.68
2018-12-05T16:51:04.142Z,100.00
2018-12-05T16:53:33.949Z,99.89
2018-12-05T16:56:03.766Z,99.62
2018-12-05T16:58:33.572Z,99.39
2018-12-05T17:01:03.393Z,99.65
2018-12-05T17:03:33.100Z,99.26
2018-12-05T17:06:03.610Z,99.19
2018-12-05T17:08:33.555Z,99.69
2018-12-05T17:11:03.395Z,99.61
2018-12-05T17:13:35.134Z,99.52
2018-12-05T17:16:04.915Z,99.42
2018-12-05T17:18:34.711Z,99.28
2018-12-05T17:21:04.521Z,97.90
2018-12-05T17:23:34.527Z,97.96
2018-12-05T17:26:04.524Z,97.95
2018-12-05T17:28:34.259Z,97.67
2018-12-05T17:31:04.067Z,98.35
2018-12-05T17:33:33.800Z,97.52
2018-12-05T17:36:03.839Z,97.29
2018-12-05T17:38:33.528Z,97.72
2018-12-05T17:41:03.391Z,95.80
2018-12-05T17:43:33.191Z,95.67
2018-12-05T17:46:03.229Z,96.88
2018-12-05T17:48:32.925Z,96.91
2018-12-05T17:51:02.818Z,97.42
2018-12-05T17:53:32.525Z,97.26
2018-12-05T17:56:02.283Z,97.58
2018-12-05T17:58:32.003Z,97.40
2018-12-05T18:01:01.835Z,96.74
2018-12-05T18:03:31.543Z,96.95
2018-12-05T18:06:01.543Z,96.72
2018-12-05T18:08:31.398Z,96.66
2018-12-05T18:11:01.288Z,97.11
2018-12-05T18:13:31.030Z,96.35
2018-12-05T18:16:00.723Z,96.67
2018-12-05T18:18:30.585Z,96.60
2018-12-05T18:21:00.481Z,97.22
2018-12-05T18:23:30.475Z,97.60
2018-12-05T18:26:00.320Z,97.04
2018-12-05T18:28:30.258Z,97.19
2018-12-05T18:31:00.048Z,97.43
2018-12-05T18:33:29.980Z,97.53
2018-12-05T18:35:59.899Z,97.95
2018-12-05T18:38:29.713Z,98.02
2018-12-05T18:40:59.590Z,97.83
2018-12-05T18:43:29.318Z,98.29
2018-12-05T18:45:59.375Z,98.12
2018-12-05T18:48:29.197Z,97.93
2018-12-05T18:50:58.961Z,97.68
2018-12-05T18:53:28.895Z,98.14
2018-12-05T18:55:58.707Z,98.33
2018-12-05T18:58:28.479Z,96.77
2018-12-05T19:00:58.415Z,95.59
2018-12-05T19:03:28.421Z,95.01
2018-12-05T19:05:58.345Z,92.93
2018-12-05T19:08:34.280Z,93.56
2018-12-05T19:11:00.142Z,93.87
2018-12-05T19:13:29.931Z,93.42
2018-12-05T19:15:59.750Z,92.52
2018-12-05T19:18:29.540Z,93.43
2018-12-05T19:20:59.886Z,93.01
2018-12-05T19:23:29.779Z,94.23
2018-12-05T19:25:59.502Z,92.59
2018-12-05T19:28:29.222Z,92.17
2018-12-05T19:30:58.935Z,93.87
2018-12-05T19:33:28.657Z,93.31
2018-12-05T19:35:58.447Z,93.08
2018-12-05T19:38:28.354Z,91.83
2018-12-05T19:40:58.234Z,93.44
2018-12-05T19:43:28.034Z,92.32
2018-12-05T19:45:58.243Z,92.41
2018-12-05T19:48:28.050Z,93.04
2018-12-05T19:50:57.879Z,93.08
2018-12-05T19:53:27.586Z,93.23
2018-12-05T19:55:57.588Z,93.36
2018-12-05T19:58:27.476Z,94.77
2018-12-05T20:00:57.294Z,94.57
2018-12-05T20:03:26.998Z,93.22
2018-12-05T20:05:56.843Z,93.74
2018-12-05T20:08:26.534Z,93.53
2018-12-05T20:10:56.336Z,93.01
2018-12-05T20:13:26.014Z,92.98
2018-12-05T20:15:55.852Z,93.63
2018-12-05T20:18:25.665Z,94.61
2018-12-05T20:20:56.830Z,94.81
2018-12-05T20:23:26.538Z,95.44
2018-12-05T20:25:56.334Z,94.60
2018-12-05T20:28:26.063Z,93.96
2018-12-05T20:30:55.858Z,93.79
2018-12-05T20:33:25.618Z,94.50
2018-12-05T20:35:55.459Z,95.24
2018-12-05T20:38:25.251Z,93.53
2018-12-05T20:40:54.951Z,93.71
2018-12-05T20:43:24.770Z,93.51
2018-12-05T20:45:54.718Z,91.92
2018-12-05T20:48:24.426Z,92.98
2018-12-05T20:50:54.368Z,91.84
2018-12-05T20:53:24.149Z,92.12
2018-12-05T20:55:53.986Z,90.60
2018-12-05T20:58:23.734Z,90.91
2018-12-05T21:00:53.572Z,92.04
2018-12-05T21:03:23.578Z,92.32
2018-12-05T21:05:53.299Z,93.59
2018-12-05T21:08:23.070Z,92.55
2018-12-05T21:10:52.766Z,92.69
2018-12-05T21:13:22.474Z,92.54
2018-12-05T21:15:52.184Z,92.36
2018-12-05T21:18:21.918Z,93.19
2018-12-05T21:20:51.614Z,94.04
2018-12-05T21:23:21.327Z,94.34
2018-12-05T21:25:51.128Z,94.62
2018-12-05T21:28:20.874Z,94.96
2018-12-05T21:30:50.673Z,94.89
2018-12-05T21:33:20.452Z,95.73
2018-12-05T21:35:50.238Z,95.65
2018-12-05T21:38:20.015Z,95.36
2018-12-05T21:40:49.748Z,96.02
2018-12-05T21:43:19.642Z,95.90
2018-12-05T21:45:49.337Z,97.04
2018-12-05T21:48:19.058Z,96.36
2018-12-05T21:50:48.791Z,97.41
2018-12-05T21:53:18.503Z,96.97
2018-12-05T21:55:48.286Z,96.95
2018-12-05T21:58:18.096Z,96.50
2018-12-05T22:00:47.855Z,97.10
2018-12-05T22:03:17.560Z,97.04
2018-12-05T22:05:47.258Z,97.48
2018-12-05T22:08:17.065Z,97.84
2018-12-05T22:10:46.850Z,97.26
2018-12-05T22:13:16.558Z,98.06
2018-12-05T22:15:46.251Z,97.79
2018-12-05T22:18:15.967Z,97.96
2018-12-05T22:20:45.694Z,97.94
2018-12-05T22:23:15.578Z,97.83
2018-12-05T22:25:45.373Z,98.26
2018-12-05T22:28:15.099Z,97.87
2018-12-05T22:30:44.795Z,98.05
2018-12-05T22:33:14.584Z,98.52
2018-12-05T22:35:44.475Z,97.83
2018-12-05T22:38:14.217Z,98.03
2018-12-05T22:40:44.006Z,98.14
2018-12-05T22:43:13.706Z,97.96
2018-12-05T22:45:43.496Z,98.48
2018-12-05T22:48:13.247Z,98.36
2018-12-05T22:50:43.059Z,97.94
2018-12-05T22:53:12.772Z,98.34
2018-12-05T22:55:42.454Z,98.89
2018-12-05T22:58:12.268Z,98.81
2018-12-05T23:00:44.858Z,98.73
2018-12-05T23:03:16.509Z,98.83
2018-12-05T23:05:46.258Z,98.70
2018-12-05T23:08:15.971Z,98.75
2018-12-05T23:10:45.847Z,98.62
2018-12-05T23:13:15.632Z,97.66
2018-12-05T23:15:45.394Z,97.77
2018-12-05T23:18:15.242Z,97.66
2018-12-05T23:20:45.062Z,98.15
2018-12-05T23:23:14.818Z,97.24
2018-12-05T23:25:44.518Z,97.06
2018-12-05T23:28:14.262Z,96.11
2018-12-05T23:30:43.961Z,95.40
2018-12-05T23:33:13.703Z,93.45
2018-12-05T23:35:43.398Z,93.79
2018-12-05T23:38:13.207Z,93.76
2018-12-05T23:40:42.895Z,93.74
2018-12-05T23:43:13.602Z,94.27
2018-12-05T23:45:43.354Z,93.25
2018-12-05T23:48:13.114Z,92.55
2018-12-05T23:50:42.994Z,93.49
2018-12-05T23:53:12.714Z,94.49
2018-12-05T23:55:42.523Z,94.98
2018-12-05T23:58:12.231Z,94.36
